Time;durP1;ratioP1;P1;durP2;ratioP2;P2;SDS_P1;SDS_P2;PMS_P1;PMS_P2;Temp;Humidity;BMP_temperature;BMP_pressure;BME280_temperature;BME280_humidity;BME280_pressure;Samples;Min_cycle;Max_cycle;Signal;HPM_P1;HPM_P2
2024/03/04 00:01:57;;;;;;;5.57;3.00;;;;;;;7.44;100.00;94869.69;5037223;28;20308;-69
2024/03/04 00:04:24;;;;;;;5.63;3.03;;;;;;;7.23;100.00;94868.94;5037280;28;20248;-69
2024/03/04 00:06:50;;;;;;;5.50;2.87;;;;;;;7.20;100.00;94869.28;5037688;28;20207;-69
2024/03/04 00:09:17;;;;;;;9.20;4.13;;;;;;;7.14;100.00;94874.47;5037635;28;20400;-69
2024/03/04 00:11:44;;;;;;;7.43;3.33;;;;;;;7.21;100.00;94880.59;5037632;28;20205;-69
2024/03/04 00:14:11;;;;;;;14.10;4.93;;;;;;;7.32;100.00;94880.91;5037048;28;20225;-69
2024/03/04 00:16:40;;;;;;;8.17;4.53;;;;;;;7.43;100.00;94886.44;5037151;28;20309;-69
2024/03/04 00:19:08;;;;;;;10.27;4.67;;;;;;;7.65;100.00;94887.16;5037898;28;20229;-69
2024/03/04 00:21:35;;;;;;;18.73;6.33;;;;;;;7.62;100.00;94900.66;5036981;28;20225;-69
2024/03/04 00:24:01;;;;;;;15.43;6.13;;;;;;;7.77;100.00;94899.56;5036826;28;20228;-69
2024/03/04 00:26:28;;;;;;;16.37;6.03;;;;;;;7.67;100.00;94909.56;5037420;28;20471;-69
2024/03/04 00:28:54;;;;;;;13.57;6.23;;;;;;;7.62;100.00;94911.94;5037111;28;20675;-69
2024/03/04 00:31:20;;;;;;;14.03;6.00;;;;;;;7.69;100.00;94918.06;5037300;28;20201;-69
2024/03/04 00:33:48;;;;;;;12.60;6.27;;;;;;;7.73;100.00;94929.78;5036755;28;20228;-69
2024/03/04 00:36:16;;;;;;;11.70;5.83;;;;;;;7.54;100.00;94940.13;5037478;28;20232;-69
2024/03/04 00:38:43;;;;;;;14.40;5.97;;;;;;;7.39;100.00;94936.78;5037544;28;20197;-69
2024/03/04 00:41:10;;;;;;;13.83;5.77;;;;;;;7.49;100.00;94932.03;5036574;28;20205;-69
2024/03/04 00:43:36;;;;;;;15.70;6.30;;;;;;;7.62;100.00;94948.66;5035550;28;20403;-69
2024/03/04 00:46:05;;;;;;;15.83;6.53;;;;;;;7.61;100.00;94938.34;5037182;28;20197;-69
2024/03/04 00:48:33;;;;;;;12.33;5.53;;;;;;;7.68;100.00;94937.41;5037608;28;20205;-69
2024/03/04 00:51:00;;;;;;;14.63;6.40;;;;;;;7.67;100.00;94938.41;5036204;28;20617;-69
2024/03/04 00:53:28;;;;;;;15.40;6.07;;;;;;;7.87;100.00;94939.38;5036656;28;20307;-69
2024/03/04 00:55:54;;;;;;;14.53;6.13;;;;;;;7.69;100.00;94941.66;5037488;28;20201;-70
2024/03/04 00:58:21;;;;;;;9.73;5.23;;;;;;;7.67;100.00;94941.03;5036766;28;20208;-69
2024/03/04 01:00:49;;;;;;;16.67;5.67;;;;;;;7.57;100.00;94943.16;5036496;28;20209;-69
2024/03/04 01:03:16;;;;;;;13.37;5.40;;;;;;;7.26;100.00;94953.19;5035879;28;20703;-69
2024/03/04 01:05:43;;;;;;;14.53;5.53;;;;;;;7.25;100.00;94965.66;5037503;28;20460;-69
2024/03/04 01:08:10;;;;;;;12.80;5.57;;;;;;;7.32;100.00;94967.34;5036435;28;20208;-69
2024/03/04 01:10:37;;;;;;;14.07;5.27;;;;;;;7.45;100.00;94965.66;5036091;28;20616;-69
2024/03/04 01:13:04;;;;;;;14.80;6.23;;;;;;;7.43;100.00;94965.03;5036835;28;20231;-69
2024/03/04 01:15:30;;;;;;;15.83;6.30;;;;;;;7.55;100.00;94962.72;5036314;28;20208;-69
2024/03/04 01:17:57;;;;;;;13.80;6.03;;;;;;;7.63;100.00;94959.97;5035805;28;20202;-69
2024/03/04 01:20:26;;;;;;;14.73;7.10;;;;;;;7.54;100.00;94959.28;5037051;28;20205;-69
2024/03/04 01:22:53;;;;;;;14.03;6.63;;;;;;;7.55;100.00;94970.59;5035884;28;20284;-69
2024/03/04 01:25:19;;;;;;;18.77;6.73;;;;;;;7.26;100.00;94975.16;5035559;28;20540;-69
2024/03/04 01:27:47;;;;;;;15.87;5.60;;;;;;;7.65;100.00;94979.75;5036461;28;20209;-69
2024/03/04 01:30:14;;;;;;;18.10;6.80;;;;;;;7.65;100.00;94984.97;5036210;28;20943;-69
2024/03/04 01:32:42;;;;;;;16.30;7.33;;;;;;;7.63;100.00;94984.34;5036157;28;20458;-69
2024/03/04 01:35:10;;;;;;;15.97;7.10;;;;;;;7.51;100.00;94982.41;5035729;28;20304;-69
2024/03/04 01:37:38;;;;;;;15.33;6.23;;;;;;;7.63;100.00;94992.22;5036556;28;20201;-69
2024/03/04 01:40:07;;;;;;;15.47;6.43;;;;;;;7.78;100.00;94990.31;5035970;28;20570;-69
2024/03/04 01:42:33;;;;;;;17.57;7.00;;;;;;;7.62;100.00;94985.34;5035910;28;20519;-69
2024/03/04 01:45:01;;;;;;;15.10;6.53;;;;;;;7.62;100.00;94985.34;5035654;28;21086;-69
2024/03/04 01:47:28;;;;;;;16.00;6.50;;;;;;;7.53;100.00;94981.22;5036120;28;20343;-69
2024/03/04 01:49:55;;;;;;;16.77;7.33;;;;;;;7.51;100.00;94983.25;5036036;28;20218;-69
2024/03/04 01:52:22;;;;;;;17.67;6.37;;;;;;;7.54;100.00;94982.06;5036165;28;20193;-68
2024/03/04 01:54:52;;;;;;;19.43;7.30;;;;;;;7.38;100.00;94982.31;5035763;28;20225;-69
2024/03/04 01:57:19;;;;;;;14.63;6.57;;;;;;;7.27;100.00;94986.25;5036135;28;20197;-68
2024/03/04 01:59:47;;;;;;;13.33;6.40;;;;;;;7.32;100.00;94986.50;5035905;28;20224;-69
2024/03/04 02:02:16;;;;;;;18.10;6.53;;;;;;;7.42;100.00;94984.38;5035181;28;20224;-69
2024/03/04 02:04:42;;;;;;;14.37;6.37;;;;;;;7.27;100.00;94991.47;5033689;28;20278;-69
2024/03/04 02:07:09;;;;;;;13.60;5.73;;;;;;;7.45;100.00;94999.72;5036359;28;20197;-69
2024/03/04 02:09:38;;;;;;;15.27;5.83;;;;;;;7.53;100.00;95002.19;5035632;28;20211;-69
2024/03/04 02:12:06;;;;;;;15.80;6.47;;;;;;;7.55;100.00;95015.16;5035287;28;20663;-69
2024/03/04 02:14:32;;;;;;;15.73;6.73;;;;;;;7.33;100.00;95016.94;5034248;28;20221;-69
2024/03/04 02:16:59;;;;;;;21.33;7.30;;;;;;;7.47;100.00;95020.50;5036015;28;20220;-69
2024/03/04 02:19:27;;;;;;;16.70;7.10;;;;;;;7.71;100.00;95025.34;5035762;28;20209;-69
2024/03/04 02:21:59;;;;;;;15.43;7.47;;;;;;;7.72;100.00;95022.53;5035760;28;20209;-68
2024/03/04 02:24:27;;;;;;;15.43;6.97;;;;;;;7.74;100.00;95027.59;5035165;28;20235;-69
2024/03/04 02:26:54;;;;;;;14.70;7.07;;;;;;;7.63;100.00;95022.88;5035322;28;20243;-68
2024/03/04 02:29:20;;;;;;;19.93;7.80;;;;;;;7.70;100.00;95029.81;5034908;28;20197;-68
2024/03/04 02:31:47;;;;;;;17.33;6.60;;;;;;;7.71;100.00;95038.47;5035286;28;20205;-68
2024/03/04 02:34:14;;;;;;;18.80;7.37;;;;;;;7.77;100.00;95041.13;5034881;28;20213;-68
2024/03/04 02:36:41;;;;;;;19.77;7.97;;;;;;;7.70;100.00;95045.53;5035533;28;20201;-68
2024/03/04 02:39:10;;;;;;;16.03;7.23;;;;;;;7.64;100.00;95045.47;5035505;28;20617;-68
2024/03/04 02:41:38;;;;;;;18.00;8.03;;;;;;;7.88;100.00;95048.50;5035206;28;20552;-68
2024/03/04 02:44:05;;;;;;;17.07;7.00;;;;;;;7.69;100.00;95048.31;5034231;28;20229;-68
2024/03/04 02:46:32;;;;;;;20.07;8.33;;;;;;;7.49;100.00;95048.13;5034878;28;20205;-68
2024/03/04 02:48:58;;;;;;;17.37;7.43;;;;;;;7.63;100.00;95051.72;5035605;28;20205;-68
2024/03/04 02:51:25;;;;;;;16.30;7.03;;;;;;;7.64;100.00;95059.38;5035281;28;20225;-68
2024/03/04 02:53:51;;;;;;;18.17;6.67;;;;;;;7.74;100.00;95059.88;5034935;28;20589;-69
2024/03/04 02:56:18;;;;;;;19.00;7.60;;;;;;;7.79;100.00;95059.31;5036321;28;20293;-68
2024/03/04 02:58:45;;;;;;;15.07;6.83;;;;;;;7.79;100.00;95060.13;5034877;28;20460;-69
2024/03/04 03:01:12;;;;;;;15.33;7.60;;;;;;;7.64;100.00;95067.25;5034743;28;20599;-68
2024/03/04 03:03:38;;;;;;;19.80;8.13;;;;;;;7.63;100.00;95073.47;5034510;28;20232;-69
2024/03/04 03:06:06;;;;;;;17.63;7.23;;;;;;;7.77;100.00;95069.97;5035192;28;20205;-69
2024/03/04 03:08:33;;;;;;;14.87;7.20;;;;;;;7.63;100.00;95070.84;5039487;28;20568;-68
2024/03/04 03:10:59;;;;;;;15.80;7.67;;;;;;;7.70;100.00;95082.22;5038815;28;21040;-68
2024/03/04 03:13:26;;;;;;;16.70;6.77;;;;;;;7.64;100.00;95080.34;5038163;28;20225;-68
2024/03/04 03:15:54;;;;;;;16.97;6.87;;;;;;;7.83;100.00;95084.16;5038322;28;20205;-68
2024/03/04 03:18:20;;;;;;;18.53;8.13;;;;;;;7.65;100.00;95092.47;5039260;28;20209;-69
2024/03/04 03:20:47;;;;;;;18.77;8.20;;;;;;;7.64;100.00;95093.47;5038850;28;20205;-68
2024/03/04 03:23:13;;;;;;;20.07;7.93;;;;;;;7.65;100.00;95089.84;5038814;28;20229;-69
2024/03/04 03:26:19;;;;;;;14.63;7.27;;;;;;;8.10;100.00;95108.59;5037863;28;20205;-68
2024/03/04 03:28:45;;;;;;;17.13;7.43;;;;;;;7.69;100.00;95113.84;5035910;28;20944;-68
2024/03/04 03:31:13;;;;;;;15.17;7.60;;;;;;;7.89;100.00;95124.38;5038293;28;20212;-69
2024/03/04 03:33:40;;;;;;;16.57;7.33;;;;;;;7.75;100.00;95126.22;5037590;28;20225;-68
2024/03/04 03:36:07;;;;;;;18.93;7.47;;;;;;;7.89;100.00;95129.63;5038361;28;20553;-68
2024/03/04 03:38:34;;;;;;;17.80;7.23;;;;;;;7.76;100.00;95128.66;5038198;28;20213;-68
2024/03/04 03:41:01;;;;;;;18.43;7.53;;;;;;;7.84;100.00;95131.19;5037893;28;20201;-68
2024/03/04 03:43:27;;;;;;;17.77;6.63;;;;;;;7.72;100.00;95137.91;5037921;28;20624;-68
2024/03/04 03:45:54;;;;;;;14.07;6.80;;;;;;;7.82;100.00;95142.84;5038474;28;20511;-68
2024/03/04 03:48:23;;;;;;;14.53;6.90;;;;;;;7.89;100.00;95140.09;5038276;28;20438;-68
2024/03/04 03:50:49;;;;;;;18.90;7.73;;;;;;;7.71;100.00;95140.72;5038365;28;20251;-68
2024/03/04 03:53:16;;;;;;;20.00;8.43;;;;;;;7.57;100.00;95139.75;5038210;28;20223;-68
2024/03/04 03:55:42;;;;;;;14.63;6.43;;;;;;;7.69;100.00;95145.31;5037950;28;20209;-68
2024/03/04 03:58:09;;;;;;;17.33;7.70;;;;;;;7.73;100.00;95155.25;5038261;28;20216;-69
2024/03/04 04:00:36;;;;;;;20.33;6.80;;;;;;;7.80;100.00;95150.88;5038846;28;20205;-68
2024/03/04 04:03:03;;;;;;;18.27;7.77;;;;;;;7.73;100.00;95146.59;5037023;28;20239;-68
2024/03/04 04:05:31;;;;;;;17.87;7.33;;;;;;;7.81;100.00;95147.28;5037672;28;20625;-68
2024/03/04 04:07:58;;;;;;;16.60;7.37;;;;;;;7.58;100.00;95161.53;5036877;28;20216;-68
2024/03/04 04:10:25;;;;;;;16.83;7.07;;;;;;;7.74;100.00;95162.13;5037386;28;20201;-68
2024/03/04 04:12:52;;;;;;;16.03;6.90;;;;;;;7.86;100.00;95173.75;5037114;28;20217;-68
2024/03/04 04:15:19;;;;;;;16.10;6.67;;;;;;;7.85;100.00;95180.00;5037512;28;20630;-68
2024/03/04 04:17:45;;;;;;;17.00;7.97;;;;;;;7.82;100.00;95182.19;5036504;28;20212;-68
2024/03/04 04:20:13;;;;;;;16.57;7.60;;;;;;;7.91;100.00;95189.75;5037314;28;20664;-68
2024/03/04 04:22:40;;;;;;;17.27;7.27;;;;;;;7.95;100.00;95188.38;5038116;28;20204;-68
2024/03/04 04:25:08;;;;;;;21.50;7.90;;;;;;;7.92;100.00;95191.38;5036990;28;20212;-68
2024/03/04 04:27:34;;;;;;;17.67;7.37;;;;;;;8.00;100.00;95201.75;5037667;28;20201;-68
2024/03/04 04:30:01;;;;;;;19.93;7.53;;;;;;;7.96;100.00;95211.78;5037080;28;20672;-68
2024/03/04 04:32:27;;;;;;;20.80;7.83;;;;;;;8.11;100.00;95219.63;5038262;28;20201;-68
2024/03/04 04:34:54;;;;;;;18.40;7.40;;;;;;;8.04;100.00;95231.84;5036751;28;20630;-68
2024/03/04 04:37:20;;;;;;;18.83;7.70;;;;;;;8.00;100.00;95225.34;5037247;28;20207;-68
2024/03/04 04:39:48;;;;;;;18.83;7.53;;;;;;;8.18;100.00;95228.41;5036148;28;20205;-68
2024/03/04 04:42:15;;;;;;;18.30;8.30;;;;;;;7.94;100.00;95237.41;5037937;28;20451;-68
2024/03/04 04:44:42;;;;;;;16.47;6.63;;;;;;;7.85;100.00;95232.44;5036259;28;20236;-68
2024/03/04 04:47:08;;;;;;;22.30;7.70;;;;;;;7.82;100.00;95243.31;5037021;28;20208;-68
2024/03/04 04:49:35;;;;;;;18.00;7.40;;;;;;;7.87;100.00;95238.31;5037133;28;20209;-68
2024/03/04 04:52:01;;;;;;;21.53;8.23;;;;;;;8.08;100.00;95243.59;5037022;28;20817;-68
2024/03/04 04:54:28;;;;;;;21.13;7.87;;;;;;;8.14;100.00;95248.94;5036326;28;20218;-68
2024/03/04 04:56:55;;;;;;;18.93;7.63;;;;;;;8.23;100.00;95252.25;5037020;28;20670;-68
2024/03/04 04:59:22;;;;;;;16.87;7.93;;;;;;;8.10;100.00;95250.28;5036432;28;20391;-67
2024/03/04 05:01:49;;;;;;;17.40;7.23;;;;;;;7.93;100.00;95253.34;5036762;28;20210;-69
2024/03/04 05:04:16;;;;;;;22.53;8.57;;;;;;;7.91;100.00;95263.19;5035562;28;20239;-68
2024/03/04 05:06:43;;;;;;;15.73;7.10;;;;;;;7.99;100.00;95260.44;5037539;28;20208;-69
2024/03/04 05:09:10;;;;;;;21.17;9.27;;;;;;;8.16;100.00;95267.09;5035962;28;20216;-67
2024/03/04 05:11:37;;;;;;;19.10;7.83;;;;;;;8.11;100.00;95272.09;5036638;28;20209;-69
2024/03/04 05:14:08;;;;;;;16.90;7.63;;;;;;;8.34;100.00;95275.38;5035490;28;20221;-69
2024/03/04 05:16:35;;;;;;;17.90;7.87;;;;;;;8.03;100.00;95280.06;5036414;28;20205;-69
2024/03/04 05:19:03;;;;;;;21.07;8.53;;;;;;;8.12;100.00;95279.78;5036225;28;20592;-69
2024/03/04 05:21:29;;;;;;;19.57;9.00;;;;;;;8.10;100.00;95281.75;5036326;28;20671;-68
2024/03/04 05:23:56;;;;;;;22.37;8.03;;;;;;;7.97;100.00;95289.47;5035935;28;20229;-69
2024/03/04 05:26:24;;;;;;;19.57;8.30;;;;;;;7.99;100.00;95291.91;5036595;28;20205;-68
2024/03/04 05:28:50;;;;;;;23.47;8.87;;;;;;;8.14;100.00;95292.75;5036214;28;20233;-68
2024/03/04 05:31:19;;;;;;;18.37;7.70;;;;;;;8.22;100.00;95292.63;5036246;28;20205;-69
2024/03/04 05:33:47;;;;;;;21.67;8.60;;;;;;;8.17;100.00;95289.72;5035484;28;20270;-70
2024/03/04 05:36:13;;;;;;;19.93;8.10;;;;;;;8.01;100.00;95288.13;5037192;28;20227;-69
2024/03/04 05:38:40;;;;;;;21.40;8.80;;;;;;;8.31;100.00;95287.09;5036206;28;20201;-68
2024/03/04 05:41:06;;;;;;;25.13;9.50;;;;;;;8.13;100.00;95296.31;5036004;28;20200;-69
2024/03/04 05:43:33;;;;;;;18.30;8.17;;;;;;;8.23;100.00;95299.50;5035963;28;20233;-68
2024/03/04 05:45:59;;;;;;;23.93;8.17;;;;;;;8.05;100.00;95312.19;5036361;28;20451;-68
2024/03/04 05:48:27;;;;;;;21.50;8.70;;;;;;;8.45;100.00;95319.53;5036333;28;20209;-68
2024/03/04 05:50:54;;;;;;;32.80;10.10;;;;;;;8.03;100.00;95319.41;5035445;28;20208;-69
2024/03/04 05:53:21;;;;;;;27.07;9.60;;;;;;;8.01;100.00;95326.66;5035649;28;20220;-69
2024/03/04 05:55:49;;;;;;;21.20;8.87;;;;;;;8.34;100.00;95326.06;5036074;28;20201;-70
2024/03/04 05:58:16;;;;;;;23.23;8.43;;;;;;;8.16;100.00;95337.94;5036148;28;20237;-69
2024/03/04 06:00:42;;;;;;;24.90;9.77;;;;;;;8.12;100.00;95336.66;5035701;28;20216;-68
2024/03/04 06:03:09;;;;;;;27.97;9.83;;;;;;;8.10;100.00;95341.31;5035841;28;20509;-69
2024/03/04 06:05:37;;;;;;;24.17;10.10;;;;;;;8.55;100.00;95340.03;5035843;28;20205;-69
2024/03/04 06:08:05;;;;;;;26.70;9.67;;;;;;;8.48;100.00;95340.97;5035952;28;20315;-70
2024/03/04 06:10:32;;;;;;;24.97;10.57;;;;;;;8.48;100.00;95350.63;5035550;28;20592;-69
2024/03/04 06:12:58;;;;;;;26.77;8.97;;;;;;;8.45;100.00;95353.66;5035294;28;21427;-69
2024/03/04 06:15:25;;;;;;;24.17;9.27;;;;;;;8.40;100.00;95358.63;5035643;28;20683;-69
2024/03/04 06:17:51;;;;;;;29.07;9.57;;;;;;;8.40;100.00;95363.88;5036133;28;20209;-68
2024/03/04 06:20:18;;;;;;;26.03;9.37;;;;;;;8.22;100.00;95371.34;5036108;28;20197;-69
2024/03/04 06:22:46;;;;;;;28.93;11.10;;;;;;;8.63;100.00;95371.44;5036371;28;20227;-69
2024/03/04 06:25:12;;;;;;;20.33;8.20;;;;;;;8.40;100.00;95366.50;5035285;28;20587;-69
2024/03/04 06:27:39;;;;;;;24.70;9.27;;;;;;;8.46;100.00;95373.66;5035453;28;20220;-69
2024/03/04 06:30:10;;;;;;;24.83;9.30;;;;;;;8.47;100.00;95376.09;5035763;28;20205;-68
2024/03/04 06:32:37;;;;;;;21.77;9.33;;;;;;;8.54;100.00;95372.53;5036106;28;20231;-69
2024/03/04 06:35:04;;;;;;;26.53;9.80;;;;;;;8.56;100.00;95381.03;5035108;28;20618;-69
2024/03/04 06:37:31;;;;;;;26.47;10.17;;;;;;;8.46;100.00;95378.91;5035919;28;20205;-68
2024/03/04 06:39:59;;;;;;;22.80;9.30;;;;;;;8.71;100.00;95378.38;5036013;28;20213;-69
2024/03/04 06:42:25;;;;;;;24.47;9.03;;;;;;;8.67;100.00;95383.19;5034420;28;20207;-69
2024/03/04 06:44:52;;;;;;;33.30;11.17;;;;;;;8.71;100.00;95381.00;5035576;28;20225;-68
2024/03/04 06:47:18;;;;;;;24.70;9.60;;;;;;;8.90;100.00;95383.03;5036655;28;20203;-69
2024/03/04 06:49:45;;;;;;;25.73;9.80;;;;;;;8.81;100.00;95384.94;5035592;28;20205;-68
2024/03/04 06:52:11;;;;;;;26.47;9.90;;;;;;;8.84;100.00;95397.69;5035379;28;20263;-68
2024/03/04 06:54:38;;;;;;;26.63;9.53;;;;;;;8.91;100.00;95395.16;5035916;28;20217;-69
2024/03/04 06:57:06;;;;;;;23.23;9.83;;;;;;;9.09;100.00;95398.97;5035612;28;20209;-69
2024/03/04 06:59:32;;;;;;;24.60;8.80;;;;;;;8.81;100.00;95403.34;5035157;28;20721;-70
2024/03/04 07:01:59;;;;;;;26.30;9.07;;;;;;;8.74;100.00;95409.53;5035725;28;20211;-69
2024/03/04 07:04:25;;;;;;;23.83;9.37;;;;;;;8.84;100.00;95405.59;5033998;28;20228;-69
2024/03/04 07:06:52;;;;;;;25.00;9.43;;;;;;;8.75;100.00;95409.31;5036522;28;20211;-68
2024/03/04 07:09:19;;;;;;;24.77;9.30;;;;;;;8.88;100.00;95406.03;5035552;28;20205;-69
2024/03/04 07:11:45;;;;;;;19.67;8.60;;;;;;;8.88;100.00;95408.66;5034941;28;20214;-70
2024/03/04 07:14:13;;;;;;;25.87;9.53;;;;;;;8.99;100.00;95408.97;5035286;28;20217;-69
2024/03/04 07:16:39;;;;;;;25.47;9.43;;;;;;;8.57;100.00;95411.53;5035894;28;20216;-69
2024/03/04 07:19:06;;;;;;;28.23;10.07;;;;;;;8.92;100.00;95418.59;5035744;28;20215;-68
2024/03/04 07:21:33;;;;;;;32.63;10.30;;;;;;;9.07;100.00;95421.19;5036108;28;20308;-69
2024/03/04 07:23:59;;;;;;;27.30;10.43;;;;;;;9.08;100.00;95430.72;5034157;28;21162;-69
2024/03/04 07:26:26;;;;;;;23.07;9.47;;;;;;;8.85;100.00;95430.06;5035858;28;20201;-69
2024/03/04 07:28:52;;;;;;;23.93;10.03;;;;;;;8.96;100.00;95425.13;5035162;28;20209;-69
2024/03/04 07:31:20;;;;;;;28.83;9.93;;;;;;;9.22;100.00;95436.69;5035480;28;20201;-69
2024/03/04 07:33:46;;;;;;;26.47;9.97;;;;;;;9.08;100.00;95437.56;5034530;28;21313;-69
2024/03/04 07:36:14;;;;;;;26.37;10.00;;;;;;;9.03;100.00;95441.75;5035518;28;20197;-69
2024/03/04 07:38:41;;;;;;;26.90;10.30;;;;;;;9.18;100.00;95439.91;5035442;28;20209;-70
2024/03/04 07:41:07;;;;;;;27.70;10.40;;;;;;;9.04;100.00;95437.31;5035267;28;20205;-70
2024/03/04 07:43:34;;;;;;;26.67;10.43;;;;;;;9.17;100.00;95440.91;5034190;28;20232;-70
2024/03/04 07:46:01;;;;;;;27.90;10.23;;;;;;;9.14;100.00;95443.91;5034826;28;20231;-70
2024/03/04 07:48:29;;;;;;;36.27;11.97;;;;;;;9.42;100.00;95440.31;5035614;28;20216;-70
2024/03/04 07:50:55;;;;;;;27.03;9.33;;;;;;;9.41;100.00;95440.53;5034831;28;20589;-70
2024/03/04 07:53:22;;;;;;;29.77;10.80;;;;;;;9.40;100.00;95449.41;5036664;28;20223;-70
2024/03/04 07:55:49;;;;;;;28.13;11.60;;;;;;;9.58;100.00;95447.13;5038778;28;20425;-70
2024/03/04 07:58:15;;;;;;;30.60;11.07;;;;;;;9.50;100.00;95444.66;5038829;28;20255;-70
2024/03/04 08:00:42;;;;;;;26.53;10.60;;;;;;;9.64;100.00;95451.66;5038623;28;20323;-70
2024/03/04 08:03:09;;;;;;;30.07;10.43;;;;;;;9.61;100.00;95454.63;5038380;28;20243;-69
2024/03/04 08:05:37;;;;;;;33.40;11.63;;;;;;;9.80;100.00;95457.41;5037229;28;20863;-70
2024/03/04 08:08:04;;;;;;;39.93;11.87;;;;;;;9.74;100.00;95464.25;5038909;28;20212;-69
2024/03/04 08:10:31;;;;;;;36.47;11.93;;;;;;;9.63;100.00;95460.53;5039506;28;20228;-70
2024/03/04 08:12:57;;;;;;;38.30;11.70;;;;;;;9.78;100.00;95469.97;5037381;28;20402;-70
2024/03/04 08:15:24;;;;;;;28.27;11.10;;;;;;;9.71;100.00;95476.97;5037130;28;20201;-70
2024/03/04 08:17:51;;;;;;;27.67;10.27;;;;;;;9.81;100.00;95482.72;5038169;28;20201;-69
2024/03/04 08:20:21;;;;;;;29.43;11.27;;;;;;;9.90;100.00;95477.16;5037219;28;20197;-70
2024/03/04 08:22:49;;;;;;;29.50;9.90;;;;;;;9.85;100.00;95482.16;5037606;28;20252;-70
2024/03/04 08:25:16;;;;;;;35.00;11.57;;;;;;;9.72;100.00;95482.06;5037300;28;20278;-70
2024/03/04 08:27:43;;;;;;;29.23;10.10;;;;;;;9.79;100.00;95487.38;5037937;28;20802;-70
2024/03/04 08:30:13;;;;;;;44.77;11.00;;;;;;;9.75;100.00;95484.31;5036964;28;20675;-70
2024/03/04 08:32:42;;;;;;;33.97;12.03;;;;;;;9.91;100.00;95486.66;5037871;28;20857;-69
2024/03/04 08:35:10;;;;;;;29.87;11.17;;;;;;;9.89;100.00;95493.09;5036393;28;20719;-70
2024/03/04 08:37:36;;;;;;;27.93;10.07;;;;;;;9.75;100.00;95489.56;5037287;28;20205;-70
2024/03/04 08:40:05;;;;;;;31.33;10.60;;;;;;;10.02;100.00;95491.44;5037247;28;20209;-69
2024/03/04 08:42:32;;;;;;;29.87;10.23;;;;;;;9.75;100.00;95497.47;5037096;28;20205;-70
2024/03/04 08:44:58;;;;;;;35.53;11.00;;;;;;;9.87;100.00;95506.47;5036503;28;20316;-70
2024/03/04 08:47:25;;;;;;;31.57;10.40;;;;;;;9.65;100.00;95508.50;5036834;28;20209;-70
2024/03/04 08:49:51;;;;;;;30.87;9.17;;;;;;;9.70;100.00;95505.09;5037122;28;20664;-69
2024/03/04 08:52:18;;;;;;;37.53;11.37;;;;;;;9.90;100.00;95510.53;5037342;28;20204;-70
2024/03/04 08:54:44;;;;;;;33.47;10.87;;;;;;;9.73;100.00;95509.97;5036535;28;20383;-70
2024/03/04 08:57:12;;;;;;;30.07;9.87;;;;;;;9.99;100.00;95514.69;5036650;28;20472;-69
2024/03/04 08:59:39;;;;;;;32.53;11.77;;;;;;;9.96;100.00;95507.97;5036952;28;20209;-69
2024/03/04 09:02:06;;;;;;;30.77;9.67;;;;;;;9.92;100.00;95519.88;5036633;28;20212;-70
2024/03/04 09:04:33;;;;;;;26.07;8.70;;;;;;;9.78;100.00;95528.66;5035254;28;20235;-70
2024/03/04 09:06:59;;;;;;;29.10;9.20;;;;;;;9.89;100.00;95524.69;5036496;28;20209;-69
2024/03/04 09:09:26;;;;;;;25.17;8.70;;;;;;;9.84;100.00;95529.72;5036636;28;20201;-69
2024/03/04 09:11:53;;;;;;;33.63;9.70;;;;;;;9.89;100.00;95532.59;5036596;28;20209;-69
2024/03/04 09:14:20;;;;;;;29.67;8.33;;;;;;;9.89;100.00;95528.16;5036555;28;20225;-70
2024/03/04 09:16:47;;;;;;;27.53;9.83;;;;;;;9.70;100.00;95531.41;5036346;28;20205;-70
2024/03/04 09:19:14;;;;;;;25.70;9.50;;;;;;;9.87;100.00;95532.78;5037131;28;20744;-70
2024/03/04 09:21:41;;;;;;;26.37;9.73;;;;;;;9.99;100.00;95525.22;5037101;28;20209;-69
2024/03/04 09:24:08;;;;;;;28.07;9.77;;;;;;;10.17;100.00;95529.03;5036061;28;20599;-69
2024/03/04 09:26:34;;;;;;;35.07;11.57;;;;;;;10.08;100.00;95535.44;5036826;28;20205;-69
2024/03/04 09:29:01;;;;;;;27.70;9.47;;;;;;;9.98;100.00;95531.47;5037344;28;20205;-68
2024/03/04 09:31:29;;;;;;;33.53;11.17;;;;;;;9.97;100.00;95537.75;5037111;28;20287;-69
2024/03/04 09:33:56;;;;;;;27.07;9.67;;;;;;;9.87;100.00;95538.03;5035632;28;20319;-68
2024/03/04 09:36:23;;;;;;;22.90;8.13;;;;;;;9.73;100.00;95540.75;5037239;28;20252;-69
2024/03/04 09:38:49;;;;;;;25.90;10.03;;;;;;;9.74;100.00;95540.56;5036555;28;20216;-68
2024/03/04 09:41:16;;;;;;;29.53;9.63;;;;;;;9.90;100.00;95540.31;5036036;28;20691;-69
2024/03/04 09:43:45;;;;;;;27.50;9.53;;;;;;;10.11;100.00;95542.94;5035393;28;20232;-68
2024/03/04 09:46:13;;;;;;;34.27;11.70;;;;;;;9.99;100.00;95541.84;5036226;28;20725;-69
2024/03/04 09:48:42;;;;;;;31.97;10.27;;;;;;;10.09;100.00;95541.50;5036562;28;20212;-68
2024/03/04 09:51:09;;;;;;;57.83;17.83;;;;;;;10.18;100.00;95548.25;5037013;28;20319;-68
2024/03/04 09:53:38;;;;;;;34.03;10.67;;;;;;;10.30;100.00;95544.91;5035898;28;20239;-68
2024/03/04 09:56:07;;;;;;;26.73;9.10;;;;;;;10.37;100.00;95554.47;5036279;28;20202;-69
2024/03/04 09:58:34;;;;;;;34.03;10.73;;;;;;;10.41;100.00;95552.25;5036213;28;20248;-70
2024/03/04 10:01:02;;;;;;;28.50;9.70;;;;;;;10.37;100.00;95556.28;5036358;28;21364;-68
2024/03/04 10:03:29;;;;;;;28.03;8.87;;;;;;;10.00;100.00;95563.69;5035186;28;20320;-69
2024/03/04 10:05:57;;;;;;;29.50;9.93;;;;;;;10.07;100.00;95570.66;5036250;28;20225;-70
2024/03/04 10:08:24;;;;;;;20.97;8.17;;;;;;;9.81;100.00;95570.38;5035976;28;20237;-69
2024/03/04 10:10:51;;;;;;;29.77;10.43;;;;;;;9.94;100.00;95565.25;5036240;28;20216;-69
2024/03/04 10:13:18;;;;;;;25.83;9.80;;;;;;;9.79;100.00;95566.31;5035526;28;20390;-70
2024/03/04 10:15:46;;;;;;;35.30;12.13;;;;;;;9.97;100.00;95562.25;5035687;28;20205;-68
2024/03/04 10:18:13;;;;;;;32.07;11.20;;;;;;;10.13;100.00;95569.06;5034924;28;20212;-69
2024/03/04 10:20:40;;;;;;;29.40;10.20;;;;;;;10.01;100.00;95570.59;5036203;28;20212;-69
2024/03/04 10:23:08;;;;;;;26.63;8.03;;;;;;;10.18;100.00;95577.22;5035381;28;20231;-69
2024/03/04 10:25:35;;;;;;;28.33;9.73;;;;;;;10.01;100.00;95570.59;5034732;28;20224;-69
2024/03/04 10:28:01;;;;;;;29.77;10.03;;;;;;;10.01;100.00;95575.84;5035896;28;20668;-68
2024/03/04 10:30:28;;;;;;;29.90;10.83;;;;;;;10.00;100.00;95575.03;5035894;28;20217;-69
2024/03/04 10:32:56;;;;;;;31.47;9.93;;;;;;;10.22;100.00;95574.03;5035594;28;20239;-69
2024/03/04 10:35:23;;;;;;;30.13;9.50;;;;;;;10.21;100.00;95577.66;5035327;28;20666;-70
2024/03/04 10:37:51;;;;;;;25.47;8.47;;;;;;;10.16;100.00;95584.50;5037276;28;21105;-69
2024/03/04 10:40:22;;;;;;;34.73;9.73;;;;;;;10.18;100.00;95583.28;5036003;28;20201;-69
2024/03/04 10:42:49;;;;;;;27.33;8.57;;;;;;;10.01;100.00;95589.00;5035873;28;20253;-69
2024/03/04 10:45:16;;;;;;;27.97;9.67;;;;;;;9.91;100.00;95589.28;5033946;28;20225;-68
2024/03/04 10:47:44;;;;;;;25.13;9.40;;;;;;;10.06;100.00;95595.34;5035652;28;20208;-68
2024/03/04 10:50:11;;;;;;;29.30;9.90;;;;;;;9.93;100.00;95594.38;5035803;28;20213;-71
2024/03/04 10:52:38;;;;;;;26.07;9.43;;;;;;;9.99;100.00;95593.63;5034126;28;20656;-71
2024/03/04 10:55:05;;;;;;;38.60;11.23;;;;;;;10.20;100.00;95598.91;5034213;28;20205;-69
2024/03/04 10:57:34;;;;;;;34.97;9.83;;;;;;;10.41;100.00;95597.03;5035497;28;20211;-67
2024/03/04 11:00:10;;;;;;;23.97;6.57;;;;;;;10.25;100.00;95605.22;5035314;28;20204;-70
2024/03/04 11:02:46;;;;;;;29.80;10.03;;;;;;;10.37;100.00;95607.16;5036342;28;20240;-70
2024/03/04 11:05:14;;;;;;;30.77;9.37;;;;;;;10.18;100.00;95600.91;5032734;28;20266;-68
2024/03/04 11:07:43;;;;;;;30.07;9.70;;;;;;;10.41;100.00;95610.19;5035645;28;20390;-70
2024/03/04 11:10:21;;;;;;;29.60;10.13;;;;;;;10.28;100.00;95602.19;5034996;28;20201;-69
2024/03/04 11:12:57;;;;;;;32.30;9.90;;;;;;;10.43;100.00;95597.66;5034743;28;20217;-70
2024/03/04 11:15:26;;;;;;;30.90;9.90;;;;;;;10.31;100.00;95599.22;5034800;28;20721;-68
2024/03/04 11:17:57;;;;;;;32.00;10.03;;;;;;;10.35;100.00;95600.44;5035878;28;20209;-70
2024/03/04 11:20:25;;;;;;;25.30;8.77;;;;;;;10.45;100.00;95599.09;5034463;28;20205;-69
2024/03/04 11:22:53;;;;;;;31.07;9.83;;;;;;;10.66;100.00;95592.97;5034884;28;20221;-68